sensor_id;sensor_type;location;lat;lon;timestamp;P1;durP1;ratioP1;P2;durP2;ratioP2
26914;SDS011;14480;52.608;13.416;2022-11-15T07:55:31;79.47;;;43.17;;
26914;SDS011;14480;52.608;13.416;2022-11-15T08:00:56;78.95;;;43.47;;
26914;SDS011;14480;52.608;13.416;2022-11-15T08:06:19;82.35;;;43.17;;
26914;SDS011;14480;52.608;13.416;2022-11-15T08:11:42;74.40;;;41.80;;
26914;SDS011;14480;52.608;13.416;2022-11-15T08:17:13;78.47;;;41.80;;
26914;SDS011;14480;52.608;13.416;2022-11-15T08:22:39;69.88;;;39.58;;
26914;SDS011;14480;52.608;13.416;2022-11-15T08:28:03;72.40;;;40.20;;
26914;SDS011;14480;52.608;13.416;2022-11-15T08:33:27;72.28;;;40.97;;
26914;SDS011;14480;52.608;13.416;2022-11-15T08:38:51;75.97;;;40.60;;
26914;SDS011;14480;52.608;13.416;2022-11-15T08:44:15;69.30;;;38.95;;
26914;SDS011;14480;52.608;13.416;2022-11-15T08:49:38;64.13;;;36.90;;
26914;SDS011;14480;52.608;13.416;2022-11-15T08:55:00;68.40;;;39.03;;
26914;SDS011;14480;52.608;13.416;2022-11-15T09:00:24;67.20;;;40.33;;
26914;SDS011;14480;52.608;13.416;2022-11-15T09:05:46;80.82;;;41.75;;
26914;SDS011;14480;52.608;13.416;2022-11-15T09:11:11;65.72;;;37.08;;
26914;SDS011;14480;52.608;13.416;2022-11-15T09:16:36;61.08;;;35.30;;
26914;SDS011;14480;52.608;13.416;2022-11-15T09:21:59;60.03;;;34.17;;
26914;SDS011;14480;52.608;13.416;2022-11-15T09:27:22;53.70;;;32.83;;
26914;SDS011;14480;52.608;13.416;2022-11-15T09:32:50;56.03;;;30.58;;
26914;SDS011;14480;52.608;13.416;2022-11-15T09:38:13;53.40;;;31.27;;
26914;SDS011;14480;52.608;13.416;2022-11-15T09:43:38;58.72;;;31.05;;
26914;SDS011;14480;52.608;13.416;2022-11-15T09:49:09;48.83;;;28.95;;
26914;SDS011;14480;52.608;13.416;2022-11-15T09:54:43;51.90;;;29.70;;
26914;SDS011;14480;52.608;13.416;2022-11-15T10:00:02;42.35;;;26.30;;
26914;SDS011;14480;52.608;13.416;2022-11-15T10:05:34;52.67;;;28.55;;
26914;SDS011;14480;52.608;13.416;2022-11-15T10:10:41;46.95;;;26.52;;
26914;SDS011;14480;52.608;13.416;2022-11-15T10:15:51;46.30;;;26.98;;
26914;SDS011;14480;52.608;13.416;2022-11-15T10:21:15;48.38;;;27.30;;
26914;SDS011;14480;52.608;13.416;2022-11-15T10:26:23;50.40;;;28.67;;
26914;SDS011;14480;52.608;13.416;2022-11-15T10:31:27;47.73;;;28.03;;
26914;SDS011;14480;52.608;13.416;2022-11-15T10:36:34;42.05;;;26.10;;
26914;SDS011;14480;52.608;13.416;2022-11-15T10:41:42;43.17;;;25.77;;
26914;SDS011;14480;52.608;13.416;2022-11-15T10:46:47;45.22;;;27.27;;
26914;SDS011;14480;52.608;13.416;2022-11-15T10:51:54;42.80;;;24.80;;
26914;SDS011;14480;52.608;13.416;2022-11-15T10:57:14;44.30;;;25.67;;
26914;SDS011;14480;52.608;13.416;2022-11-15T11:02:30;49.30;;;26.70;;
26914;SDS011;14480;52.608;13.416;2022-11-15T11:07:38;42.67;;;26.60;;
26914;SDS011;14480;52.608;13.416;2022-11-15T11:12:43;40.97;;;24.55;;
26914;SDS011;14480;52.608;13.416;2022-11-15T11:17:51;42.85;;;26.33;;
26914;SDS011;14480;52.608;13.416;2022-11-15T11:23:14;42.08;;;25.63;;
26914;SDS011;14480;52.608;13.416;2022-11-15T11:28:41;47.72;;;25.65;;
26914;SDS011;14480;52.608;13.416;2022-11-15T11:33:58;42.72;;;25.38;;
26914;SDS011;14480;52.608;13.416;2022-11-15T11:39:17;42.37;;;24.53;;
26914;SDS011;14480;52.608;13.416;2022-11-15T11:44:35;37.35;;;24.77;;
26914;SDS011;14480;52.608;13.416;2022-11-15T11:49:49;42.00;;;24.07;;
26914;SDS011;14480;52.608;13.416;2022-11-15T11:55:00;39.92;;;24.55;;
26914;SDS011;14480;52.608;13.416;2022-11-15T12:00:16;37.70;;;23.50;;
26914;SDS011;14480;52.608;13.416;2022-11-15T12:05:30;40.15;;;23.85;;
26914;SDS011;14480;52.608;13.416;2022-11-15T12:10:41;38.83;;;21.33;;
26914;SDS011;14480;52.608;13.416;2022-11-15T12:15:53;37.00;;;21.98;;
26914;SDS011;14480;52.608;13.416;2022-11-15T12:21:02;33.53;;;21.08;;
26914;SDS011;14480;52.608;13.416;2022-11-15T12:26:14;34.05;;;20.10;;
26914;SDS011;14480;52.608;13.416;2022-11-15T12:31:23;33.53;;;19.90;;
26914;SDS011;14480;52.608;13.416;2022-11-15T12:36:38;38.33;;;22.50;;
26914;SDS011;14480;52.608;13.416;2022-11-15T12:47:26;34.28;;;21.73;;
26914;SDS011;14480;52.608;13.416;2022-11-15T12:52:31;38.95;;;21.52;;
26914;SDS011;14480;52.608;13.416;2022-11-15T13:02:43;30.67;;;18.90;;
26914;SDS011;14480;52.608;13.416;2022-11-15T13:07:56;32.97;;;20.52;;
26914;SDS011;14480;52.608;13.416;2022-11-15T13:13:07;33.97;;;19.63;;
26914;SDS011;14480;52.608;13.416;2022-11-15T13:18:29;36.78;;;20.80;;
26914;SDS011;14480;52.608;13.416;2022-11-15T13:23:37;38.00;;;21.33;;
26914;SDS011;14480;52.608;13.416;2022-11-15T13:28:47;34.35;;;22.35;;
26914;SDS011;14480;52.608;13.416;2022-11-15T13:33:55;34.40;;;21.60;;
26914;SDS011;14480;52.608;13.416;2022-11-15T13:39:05;36.08;;;22.27;;
26914;SDS011;14480;52.608;13.416;2022-11-15T13:44:20;35.80;;;21.45;;
26914;SDS011;14480;52.608;13.416;2022-11-15T13:49:29;34.33;;;22.43;;
26914;SDS011;14480;52.608;13.416;2022-11-15T13:54:35;36.88;;;23.02;;
26914;SDS011;14480;52.608;13.416;2022-11-15T13:59:47;33.80;;;22.27;;
26914;SDS011;14480;52.608;13.416;2022-11-15T14:04:55;38.22;;;22.67;;
26914;SDS011;14480;52.608;13.416;2022-11-15T14:15:27;32.67;;;21.15;;
26914;SDS011;14480;52.608;13.416;2022-11-15T14:20:34;34.45;;;20.33;;
26914;SDS011;14480;52.608;13.416;2022-11-15T14:25:39;33.50;;;20.40;;
26914;SDS011;14480;52.608;13.416;2022-11-15T14:30:44;37.45;;;21.95;;
26914;SDS011;14480;52.608;13.416;2022-11-15T14:35:52;37.03;;;23.65;;
26914;SDS011;14480;52.608;13.416;2022-11-15T14:40:56;41.53;;;23.83;;
26914;SDS011;14480;52.608;13.416;2022-11-15T14:46:05;35.30;;;23.02;;
26914;SDS011;14480;52.608;13.416;2022-11-15T14:51:10;39.30;;;22.42;;
26914;SDS011;14480;52.608;13.416;2022-11-15T14:56:16;49.80;;;26.90;;
26914;SDS011;14480;52.608;13.416;2022-11-15T15:01:23;46.50;;;24.40;;
26914;SDS011;14480;52.608;13.416;2022-11-15T15:06:28;57.45;;;28.05;;
26914;SDS011;14480;52.608;13.416;2022-11-15T15:11:33;44.00;;;24.40;;
26914;SDS011;14480;52.608;13.416;2022-11-15T15:16:39;39.53;;;24.20;;
26914;SDS011;14480;52.608;13.416;2022-11-15T15:21:45;41.13;;;24.92;;
26914;SDS011;14480;52.608;13.416;2022-11-15T15:26:49;42.65;;;25.33;;
26914;SDS011;14480;52.608;13.416;2022-11-15T15:31:54;45.00;;;25.27;;
26914;SDS011;14480;52.608;13.416;2022-11-15T15:37:08;45.42;;;26.92;;
26914;SDS011;14480;52.608;13.416;2022-11-15T15:42:24;45.08;;;26.05;;
26914;SDS011;14480;52.608;13.416;2022-11-15T15:47:29;47.50;;;27.33;;
26914;SDS011;14480;52.608;13.416;2022-11-15T15:52:33;46.95;;;26.30;;
26914;SDS011;14480;52.608;13.416;2022-11-15T15:57:37;48.15;;;28.92;;
26914;SDS011;14480;52.608;13.416;2022-11-15T16:02:42;47.95;;;27.17;;
26914;SDS011;14480;52.608;13.416;2022-11-15T16:07:48;50.95;;;29.02;;
26914;SDS011;14480;52.608;13.416;2022-11-15T16:12:52;39.97;;;26.30;;
26914;SDS011;14480;52.608;13.416;2022-11-15T16:17:59;42.13;;;28.33;;
26914;SDS011;14480;52.608;13.416;2022-11-15T16:23:05;45.55;;;29.17;;
26914;SDS011;14480;52.608;13.416;2022-11-15T16:28:16;45.03;;;28.55;;
26914;SDS011;14480;52.608;13.416;2022-11-15T16:33:23;47.03;;;30.13;;
26914;SDS011;14480;52.608;13.416;2022-11-15T16:38:31;47.28;;;28.92;;
26914;SDS011;14480;52.608;13.416;2022-11-15T16:43:37;50.60;;;30.90;;
26914;SDS011;14480;52.608;13.416;2022-11-15T16:48:42;55.63;;;33.92;;
26914;SDS011;14480;52.608;13.416;2022-11-15T16:53:46;64.30;;;37.10;;
26914;SDS011;14480;52.608;13.416;2022-11-15T16:58:51;54.58;;;34.45;;
26914;SDS011;14480;52.608;13.416;2022-11-15T17:03:57;61.60;;;37.13;;
26914;SDS011;14480;52.608;13.416;2022-11-15T17:09:16;60.22;;;36.70;;
26914;SDS011;14480;52.608;13.416;2022-11-15T17:14:56;68.75;;;39.17;;
26914;SDS011;14480;52.608;13.416;2022-11-15T17:20:01;68.47;;;40.67;;
26914;SDS011;14480;52.608;13.416;2022-11-15T17:25:10;77.68;;;42.50;;
26914;SDS011;14480;52.608;13.416;2022-11-15T17:30:15;84.38;;;45.78;;
26914;SDS011;14480;52.608;13.416;2022-11-15T17:40:24;95.85;;;49.28;;
26914;SDS011;14480;52.608;13.416;2022-11-15T17:45:28;100.75;;;53.25;;
26914;SDS011;14480;52.608;13.416;2022-11-15T17:50:33;106.68;;;56.03;;
26914;SDS011;14480;52.608;13.416;2022-11-15T17:55:37;98.35;;;53.10;;
26914;SDS011;14480;52.608;13.416;2022-11-15T18:00:44;101.95;;;53.05;;
26914;SDS011;14480;52.608;13.416;2022-11-15T18:05:50;99.43;;;54.50;;
26914;SDS011;14480;52.608;13.416;2022-11-15T18:11:00;105.68;;;52.20;;
26914;SDS011;14480;52.608;13.416;2022-11-15T18:16:08;94.30;;;49.58;;
26914;SDS011;14480;52.608;13.416;2022-11-15T18:21:18;95.63;;;50.83;;
26914;SDS011;14480;52.608;13.416;2022-11-15T18:26:26;95.55;;;53.08;;
26914;SDS011;14480;52.608;13.416;2022-11-15T18:31:32;94.68;;;50.60;;
26914;SDS011;14480;52.608;13.416;2022-11-15T18:36:37;98.00;;;51.03;;
26914;SDS011;14480;52.608;13.416;2022-11-15T18:41:44;102.50;;;52.03;;
26914;SDS011;14480;52.608;13.416;2022-11-15T18:46:48;102.30;;;51.97;;
26914;SDS011;14480;52.608;13.416;2022-11-15T18:51:54;97.75;;;50.92;;
26914;SDS011;14480;52.608;13.416;2022-11-15T18:56:59;123.40;;;55.08;;
26914;SDS011;14480;52.608;13.416;2022-11-15T19:02:04;104.53;;;52.28;;
26914;SDS011;14480;52.608;13.416;2022-11-15T19:07:13;116.90;;;51.22;;
26914;SDS011;14480;52.608;13.416;2022-11-15T19:12:19;164.50;;;54.38;;
26914;SDS011;14480;52.608;13.416;2022-11-15T19:17:23;122.97;;;53.58;;
26914;SDS011;14480;52.608;13.416;2022-11-15T19:22:29;123.18;;;54.50;;
26914;SDS011;14480;52.608;13.416;2022-11-15T19:27:56;150.43;;;55.78;;
26914;SDS011;14480;52.608;13.416;2022-11-15T19:33:00;137.75;;;53.65;;
26914;SDS011;14480;52.608;13.416;2022-11-15T19:38:17;135.25;;;56.65;;
26914;SDS011;14480;52.608;13.416;2022-11-15T19:43:21;131.20;;;54.95;;
26914;SDS011;14480;52.608;13.416;2022-11-15T19:48:25;176.40;;;54.15;;
26914;SDS011;14480;52.608;13.416;2022-11-15T19:53:34;134.30;;;54.00;;
26914;SDS011;14480;52.608;13.416;2022-11-15T19:58:39;149.88;;;53.35;;
26914;SDS011;14480;52.608;13.416;2022-11-15T20:03:44;198.63;;;54.20;;
26914;SDS011;14480;52.608;13.416;2022-11-15T20:08:51;115.03;;;48.90;;
26914;SDS011;14480;52.608;13.416;2022-11-15T20:13:56;138.05;;;48.83;;
26914;SDS011;14480;52.608;13.416;2022-11-15T20:19:12;127.82;;;50.17;;
26914;SDS011;14480;52.608;13.416;2022-11-15T20:24:21;99.82;;;46.40;;
26914;SDS011;14480;52.608;13.416;2022-11-15T20:29:31;138.07;;;44.67;;
26914;SDS011;14480;52.608;13.416;2022-11-15T20:34:36;99.22;;;42.45;;
26914;SDS011;14480;52.608;13.416;2022-11-15T20:39:57;98.53;;;43.22;;
26914;SDS011;14480;52.608;13.416;2022-11-15T20:45:07;129.00;;;44.90;;
26914;SDS011;14480;52.608;13.416;2022-11-15T20:50:12;138.73;;;42.37;;
26914;SDS011;14480;52.608;13.416;2022-11-15T20:55:39;118.28;;;44.30;;
26914;SDS011;14480;52.608;13.416;2022-11-15T21:00:43;114.90;;;45.05;;
26914;SDS011;14480;52.608;13.416;2022-11-15T21:05:48;120.15;;;42.95;;
26914;SDS011;14480;52.608;13.416;2022-11-15T21:10:56;115.13;;;44.17;;
26914;SDS011;14480;52.608;13.416;2022-11-15T21:16:17;122.28;;;44.42;;
26914;SDS011;14480;52.608;13.416;2022-11-15T21:21:21;113.18;;;43.90;;
26914;SDS011;14480;52.608;13.416;2022-11-15T21:26:27;126.35;;;44.58;;
26914;SDS011;14480;52.608;13.416;2022-11-15T21:31:31;119.82;;;43.42;;
26914;SDS011;14480;52.608;13.416;2022-11-15T21:36:35;147.40;;;41.93;;
26914;SDS011;14480;52.608;13.416;2022-11-15T21:41:41;138.20;;;41.90;;
26914;SDS011;14480;52.608;13.416;2022-11-15T21:51:48;104.03;;;41.90;;
26914;SDS011;14480;52.608;13.416;2022-11-15T21:56:53;131.00;;;42.53;;
26914;SDS011;14480;52.608;13.416;2022-11-15T22:01:58;120.03;;;42.00;;
26914;SDS011;14480;52.608;13.416;2022-11-15T22:07:17;121.93;;;40.10;;
26914;SDS011;14480;52.608;13.416;2022-11-15T22:12:22;100.85;;;41.97;;
26914;SDS011;14480;52.608;13.416;2022-11-15T22:17:31;106.30;;;42.47;;
26914;SDS011;14480;52.608;13.416;2022-11-15T22:22:48;109.78;;;41.83;;
26914;SDS011;14480;52.608;13.416;2022-11-15T22:27:54;137.93;;;43.58;;
26914;SDS011;14480;52.608;13.416;2022-11-15T22:32:58;124.13;;;42.53;;
26914;SDS011;14480;52.608;13.416;2022-11-15T22:43:50;113.53;;;42.15;;
26914;SDS011;14480;52.608;13.416;2022-11-15T22:48:58;105.43;;;42.60;;
26914;SDS011;14480;52.608;13.416;2022-11-15T22:54:05;121.43;;;42.42;;
26914;SDS011;14480;52.608;13.416;2022-11-15T22:59:11;120.25;;;41.38;;
26914;SDS011;14480;52.608;13.416;2022-11-15T23:04:15;121.03;;;43.17;;
26914;SDS011;14480;52.608;13.416;2022-11-15T23:09:19;124.05;;;43.65;;
26914;SDS011;14480;52.608;13.416;2022-11-15T23:14:25;135.65;;;43.65;;
26914;SDS011;14480;52.608;13.416;2022-11-15T23:19:31;116.38;;;41.15;;
26914;SDS011;14480;52.608;13.416;2022-11-15T23:24:37;144.90;;;42.33;;
26914;SDS011;14480;52.608;13.416;2022-11-15T23:29:43;121.70;;;42.72;;
26914;SDS011;14480;52.608;13.416;2022-11-15T23:35:05;118.43;;;41.60;;
26914;SDS011;14480;52.608;13.416;2022-11-15T23:45:15;121.75;;;42.03;;
26914;SDS011;14480;52.608;13.416;2022-11-15T23:50:19;156.07;;;43.38;;
26914;SDS011;14480;52.608;13.416;2022-11-15T23:55:26;122.50;;;42.05;;
